createdAt,value
2022-09-18T00:01:10.695Z,1.00
2022-09-18T00:03:38.639Z,1.13
2022-09-18T00:06:08.397Z,1.00
2022-09-18T00:08:38.643Z,1.13
2022-09-18T00:11:07.532Z,0.73
2022-09-18T00:13:35.513Z,0.77
2022-09-18T00:16:03.609Z,0.90
2022-09-18T00:18:31.631Z,1.10
2022-09-18T00:21:05.266Z,1.00
2022-09-18T00:23:32.852Z,1.10
2022-09-18T00:26:02.135Z,1.07
2022-09-18T00:28:30.044Z,0.93
2022-09-18T00:30:57.671Z,1.20
2022-09-18T00:33:25.406Z,1.60
2022-09-18T00:35:53.016Z,0.83
2022-09-18T00:38:20.593Z,1.07
2022-09-18T00:40:48.192Z,0.90
2022-09-18T00:43:21.913Z,1.20
2022-09-18T00:45:55.480Z,1.20
2022-09-18T00:48:25.696Z,0.90
2022-09-18T00:50:53.737Z,0.80
2022-09-18T00:53:21.436Z,0.90
2022-09-18T00:55:49.072Z,0.93
2022-09-18T00:58:16.793Z,0.80
2022-09-18T01:00:45.744Z,0.70
2022-09-18T01:03:13.446Z,1.40
2022-09-18T01:05:53.332Z,0.80
2022-09-18T01:08:31.971Z,0.90
2022-09-18T01:11:11.887Z,0.90
2022-09-18T01:13:47.962Z,0.97
2022-09-18T01:16:27.825Z,0.80
2022-09-18T01:19:07.471Z,1.07
2022-09-18T01:21:44.380Z,1.27
2022-09-18T01:24:34.978Z,1.03
2022-09-18T01:27:05.829Z,0.77
2022-09-18T01:29:43.591Z,1.00
2022-09-18T01:32:19.374Z,1.00
2022-09-18T01:34:50.818Z,1.03
2022-09-18T01:37:24.448Z,0.73
2022-09-18T01:39:55.463Z,0.70
2022-09-18T01:42:26.378Z,0.83
2022-09-18T01:45:00.429Z,0.97
2022-09-18T01:47:33.996Z,0.60
2022-09-18T01:50:03.783Z,0.80
2022-09-18T01:52:36.409Z,0.60
2022-09-18T01:55:10.114Z,0.73
2022-09-18T01:57:42.691Z,1.07
2022-09-18T02:00:13.949Z,0.93
2022-09-18T02:02:46.917Z,0.90
2022-09-18T02:05:20.321Z,0.90
2022-09-18T02:07:52.845Z,0.80
2022-09-18T02:10:24.205Z,1.00
2022-09-18T02:12:54.651Z,1.40
2022-09-18T02:15:25.948Z,1.00
2022-09-18T02:17:57.510Z,1.10
2022-09-18T02:20:28.867Z,0.70
2022-09-18T02:23:00.066Z,1.10
2022-09-18T02:25:32.763Z,0.70
2022-09-18T02:28:01.241Z,1.10
2022-09-18T02:30:31.117Z,0.53
2022-09-18T02:32:58.798Z,0.90
2022-09-18T02:35:31.665Z,0.70
2022-09-18T02:38:06.034Z,0.60
2022-09-18T02:40:46.525Z,0.83
2022-09-18T02:43:22.882Z,1.23
2022-09-18T02:45:59.454Z,0.53
2022-09-18T02:48:44.074Z,0.60
2022-09-18T02:51:21.038Z,0.70
2022-09-18T02:53:57.365Z,0.70
2022-09-18T02:56:35.090Z,0.80
2022-09-18T02:59:10.892Z,0.60
2022-09-18T03:01:43.489Z,0.70
2022-09-18T03:04:14.303Z,0.63
2022-09-18T03:06:42.260Z,0.70
2022-09-18T03:09:09.831Z,0.60
2022-09-18T03:11:38.008Z,0.80
2022-09-18T03:14:05.682Z,0.53
2022-09-18T03:16:33.281Z,0.70
2022-09-18T03:19:02.300Z,1.00
2022-09-18T03:21:30.064Z,0.60
2022-09-18T03:23:57.948Z,0.60
2022-09-18T03:26:25.713Z,0.47
2022-09-18T03:28:53.289Z,0.60
2022-09-18T03:31:20.921Z,0.57
2022-09-18T03:33:48.646Z,0.70
2022-09-18T03:36:17.803Z,0.60
2022-09-18T03:38:45.354Z,0.60
2022-09-18T03:41:12.927Z,0.87
2022-09-18T03:43:40.639Z,0.50
2022-09-18T03:46:08.320Z,0.43
2022-09-18T03:48:36.016Z,0.50
2022-09-18T03:51:03.572Z,0.40
2022-09-18T03:53:32.520Z,0.47
2022-09-18T03:56:00.138Z,0.70
2022-09-18T03:58:27.733Z,0.93
2022-09-18T04:00:55.588Z,0.30
2022-09-18T04:03:23.309Z,0.50
2022-09-18T04:05:51.107Z,0.40
2022-09-18T04:08:19.130Z,0.60
2022-09-18T04:10:49.361Z,0.97
2022-09-18T04:13:17.110Z,0.30
2022-09-18T04:15:45.235Z,0.50
2022-09-18T04:18:12.916Z,0.70
2022-09-18T04:20:40.552Z,0.30
2022-09-18T04:23:08.123Z,0.53
2022-09-18T04:25:35.736Z,0.60
2022-09-18T04:28:04.884Z,0.50
2022-09-18T04:30:32.668Z,0.50
2022-09-18T04:33:00.425Z,0.50
2022-09-18T04:35:28.103Z,0.50
2022-09-18T04:37:55.767Z,0.50
2022-09-18T04:40:23.444Z,0.70
2022-09-18T04:42:51.111Z,0.50
2022-09-18T04:45:20.020Z,0.83
2022-09-18T04:47:48.900Z,0.53
2022-09-18T04:50:16.762Z,0.50
2022-09-18T04:52:44.835Z,0.57
2022-09-18T04:55:12.543Z,0.53
2022-09-18T04:57:41.001Z,0.70
2022-09-18T05:00:10.310Z,0.47
2022-09-18T05:02:39.857Z,0.50
2022-09-18T05:05:07.950Z,0.40
2022-09-18T05:07:35.542Z,1.10
2022-09-18T05:10:03.260Z,0.90
2022-09-18T05:12:30.842Z,0.30
2022-09-18T05:14:58.406Z,0.43
2022-09-18T05:17:26.019Z,0.40
2022-09-18T05:19:54.908Z,0.50
2022-09-18T05:22:22.485Z,0.60
2022-09-18T05:24:50.134Z,0.33
2022-09-18T05:27:17.797Z,0.67
2022-09-18T05:29:45.368Z,0.40
2022-09-18T05:32:12.998Z,0.50
2022-09-18T05:34:40.584Z,0.60
2022-09-18T05:37:10.429Z,0.60
2022-09-18T05:39:38.065Z,0.87
2022-09-18T05:42:06.402Z,0.53
2022-09-18T05:44:34.050Z,0.40
2022-09-18T05:47:01.743Z,0.50
2022-09-18T05:49:29.547Z,0.80
2022-09-18T05:51:57.181Z,0.40
2022-09-18T05:54:26.174Z,0.50
2022-09-18T05:56:54.787Z,0.50
2022-09-18T05:59:22.390Z,0.40
2022-09-18T06:01:50.061Z,0.30
2022-09-18T06:04:17.717Z,0.60
2022-09-18T06:06:45.317Z,0.37
2022-09-18T06:09:13.217Z,0.30
2022-09-18T06:11:42.119Z,0.40
2022-09-18T06:14:10.147Z,0.20
2022-09-18T06:16:42.095Z,0.40
2022-09-18T06:19:10.136Z,0.40
2022-09-18T06:21:37.755Z,0.33
2022-09-18T06:24:05.459Z,0.40
2022-09-18T06:26:33.380Z,0.50
2022-09-18T06:29:02.740Z,0.40
2022-09-18T06:31:30.390Z,0.40
2022-09-18T06:33:58.416Z,0.40
2022-09-18T06:36:26.011Z,1.10
2022-09-18T06:38:53.615Z,0.30
2022-09-18T06:41:21.188Z,0.77
2022-09-18T06:43:50.204Z,0.90
2022-09-18T06:46:19.168Z,0.90
2022-09-18T06:48:49.453Z,0.60
2022-09-18T06:51:17.070Z,0.63
2022-09-18T06:53:44.896Z,1.40
2022-09-18T06:56:12.472Z,0.80
2022-09-18T06:58:40.050Z,0.70
2022-09-18T07:01:07.744Z,0.90
2022-09-18T07:03:36.707Z,1.30
2022-09-18T07:06:04.704Z,1.00
2022-09-18T07:08:32.259Z,1.17
2022-09-18T07:11:02.015Z,1.27
2022-09-18T07:13:31.570Z,1.13
2022-09-18T07:15:59.359Z,1.00
2022-09-18T07:18:27.198Z,0.90
2022-09-18T07:20:56.288Z,1.37
2022-09-18T07:23:24.223Z,0.97
2022-09-18T07:25:51.923Z,0.70
2022-09-18T07:28:19.667Z,0.90
2022-09-18T07:30:47.435Z,1.63
2022-09-18T07:33:15.054Z,0.70
2022-09-18T07:35:42.653Z,1.23
2022-09-18T07:38:11.780Z,0.60
2022-09-18T07:40:40.268Z,1.00
2022-09-18T07:43:10.492Z,0.60
2022-09-18T07:45:38.328Z,0.43
2022-09-18T07:48:07.621Z,0.70
2022-09-18T07:50:35.521Z,0.67
2022-09-18T07:53:05.266Z,0.50
2022-09-18T07:55:36.337Z,0.70
2022-09-18T07:58:05.892Z,0.67
2022-09-18T08:00:36.013Z,0.67
2022-09-18T08:03:04.275Z,0.83
2022-09-18T08:05:32.207Z,0.60
2022-09-18T08:08:03.661Z,0.87
2022-09-18T08:10:31.297Z,0.67
2022-09-18T08:13:00.294Z,0.70
2022-09-18T08:15:27.918Z,0.67
2022-09-18T08:17:55.564Z,0.70
2022-09-18T08:20:23.418Z,0.77
2022-09-18T08:22:51.151Z,0.93
2022-09-18T08:25:20.734Z,0.93
2022-09-18T08:27:48.385Z,1.00
2022-09-18T08:30:17.864Z,0.70
2022-09-18T08:32:45.520Z,0.70
2022-09-18T08:35:13.171Z,0.80
2022-09-18T08:37:48.795Z,1.03
2022-09-18T08:40:19.708Z,0.90
2022-09-18T08:43:03.013Z,1.27
2022-09-18T08:45:46.680Z,1.00
2022-09-18T08:48:20.228Z,1.07
2022-09-18T08:50:56.073Z,1.30
2022-09-18T08:53:29.701Z,0.97
2022-09-18T08:56:00.148Z,0.90
2022-09-18T08:58:31.914Z,0.90
2022-09-18T09:01:07.315Z,1.43
2022-09-18T09:03:45.697Z,1.13
2022-09-18T09:06:28.131Z,1.63
2022-09-18T09:09:31.222Z,1.40
2022-09-18T09:12:07.204Z,1.83
2022-09-18T09:15:00.063Z,1.10
2022-09-18T09:17:40.120Z,1.40
2022-09-18T09:20:24.476Z,1.13
2022-09-18T09:23:04.241Z,1.30
2022-09-18T09:25:39.072Z,1.20
2022-09-18T09:28:16.797Z,1.30
2022-09-18T09:30:47.427Z,3.80
2022-09-18T09:33:22.557Z,4.60
2022-09-18T09:35:53.635Z,1.27
2022-09-18T09:38:32.825Z,0.90
2022-09-18T09:41:07.150Z,1.30
2022-09-18T09:43:41.104Z,1.07
2022-09-18T09:46:19.331Z,1.13
2022-09-18T09:48:57.586Z,1.20
2022-09-18T09:51:32.046Z,1.37
2022-09-18T09:54:02.264Z,1.27
2022-09-18T09:56:36.819Z,0.90
2022-09-18T09:59:15.795Z,0.80
2022-09-18T10:01:47.781Z,1.70
2022-09-18T10:04:28.255Z,1.27
2022-09-18T10:07:01.018Z,0.73
2022-09-18T10:09:39.652Z,0.80
2022-09-18T10:12:19.983Z,1.30
2022-09-18T10:14:50.967Z,1.20
2022-09-18T10:17:20.506Z,1.07
2022-09-18T10:19:50.118Z,1.03
2022-09-18T10:22:23.107Z,0.83
2022-09-18T10:24:57.914Z,0.80
2022-09-18T10:27:25.602Z,0.90
2022-09-18T10:29:54.352Z,0.60
2022-09-18T10:32:37.436Z,1.03
2022-09-18T10:37:59.363Z,0.87
2022-09-18T10:40:31.998Z,0.77
2022-09-18T10:43:00.419Z,0.97
2022-09-18T10:45:30.104Z,0.97
2022-09-18T10:48:07.089Z,0.90
2022-09-18T10:50:34.788Z,1.10
2022-09-18T10:53:22.936Z,1.20
2022-09-18T10:55:55.182Z,1.00
2022-09-18T10:58:27.856Z,1.60
2022-09-18T11:01:00.418Z,1.10
2022-09-18T11:03:41.651Z,1.23
2022-09-18T11:06:16.738Z,0.90
2022-09-18T11:08:50.284Z,1.13
2022-09-18T11:11:25.216Z,1.13
2022-09-18T11:13:57.977Z,1.27
2022-09-18T11:16:29.124Z,1.43
2022-09-18T11:19:07.614Z,1.23
2022-09-18T11:21:45.063Z,1.10
2022-09-18T11:24:20.539Z,1.00
2022-09-18T11:26:50.805Z,0.87
2022-09-18T11:29:23.713Z,0.90
2022-09-18T11:31:56.124Z,1.07
2022-09-18T11:34:26.880Z,0.90
2022-09-18T11:36:58.585Z,1.00
2022-09-18T11:39:34.146Z,1.30
2022-09-18T11:42:02.031Z,1.00
2022-09-18T11:44:33.370Z,0.97
2022-09-18T11:47:20.034Z,1.00
2022-09-18T11:49:51.343Z,1.20
2022-09-18T11:52:24.583Z,1.00
2022-09-18T11:54:58.178Z,0.90
2022-09-18T11:57:29.475Z,0.80
2022-09-18T12:00:01.046Z,2.30
2022-09-18T12:02:37.565Z,1.33
2022-09-18T12:05:16.989Z,1.47
2022-09-18T12:07:51.157Z,0.77
2022-09-18T12:10:27.152Z,0.80
2022-09-18T12:13:13.205Z,0.80
2022-09-18T12:15:44.893Z,0.80
2022-09-18T12:18:16.996Z,0.80
2022-09-18T12:20:49.738Z,1.10
2022-09-18T12:23:22.108Z,0.90
2022-09-18T12:26:04.394Z,0.80
2022-09-18T12:28:44.545Z,0.73
2022-09-18T12:31:20.850Z,1.30
2022-09-18T12:33:56.031Z,1.87
2022-09-18T12:36:46.831Z,1.27
2022-09-18T12:39:31.552Z,1.43
2022-09-18T12:42:14.867Z,1.07
2022-09-18T12:45:13.631Z,1.20
2022-09-18T12:48:02.205Z,1.13
2022-09-18T12:50:45.704Z,0.63
2022-09-18T12:53:25.705Z,1.27
2022-09-18T12:56:07.045Z,1.00
2022-09-18T12:58:58.789Z,1.10
2022-09-18T13:01:32.834Z,1.10
2022-09-18T13:04:07.175Z,1.57
2022-09-18T13:06:42.563Z,1.37
2022-09-18T13:09:20.841Z,1.00
2022-09-18T13:11:55.538Z,1.30
2022-09-18T13:14:27.316Z,1.10
2022-09-18T13:17:00.791Z,1.40
2022-09-18T13:19:33.481Z,1.70
2022-09-18T13:22:05.790Z,1.70
2022-09-18T13:24:35.779Z,1.23
2022-09-18T13:27:05.986Z,1.40
2022-09-18T13:29:59.042Z,1.23
2022-09-18T13:32:40.639Z,1.00
2022-09-18T13:35:21.296Z,1.30
2022-09-18T13:37:50.238Z,0.77
2022-09-18T13:40:33.169Z,0.93
2022-09-18T13:43:20.517Z,1.20
2022-09-18T13:45:49.981Z,1.00
2022-09-18T13:48:23.339Z,1.07
2022-09-18T13:50:54.767Z,1.00
2022-09-18T13:53:34.401Z,1.13
2022-09-18T13:56:02.598Z,1.77
2022-09-18T13:58:39.080Z,1.27
2022-09-18T14:01:28.510Z,0.90
2022-09-18T14:03:59.996Z,1.30
2022-09-18T14:06:46.550Z,0.90
2022-09-18T14:09:48.208Z,1.20
2022-09-18T14:12:17.478Z,1.50
2022-09-18T14:14:57.632Z,1.00
2022-09-18T14:17:26.499Z,0.93
2022-09-18T14:20:04.882Z,1.07
2022-09-18T14:22:34.867Z,1.20
2022-09-18T14:25:05.126Z,1.00
2022-09-18T14:27:40.309Z,1.23
2022-09-18T14:30:20.240Z,1.03
2022-09-18T14:33:20.779Z,0.80
2022-09-18T14:35:54.070Z,1.03
2022-09-18T14:38:28.637Z,1.10
2022-09-18T14:41:05.618Z,1.40
2022-09-18T14:43:33.185Z,1.00
2022-09-18T14:46:01.030Z,1.00
2022-09-18T14:48:31.198Z,1.10
2022-09-18T14:51:04.288Z,1.17
2022-09-18T14:53:32.494Z,1.00
2022-09-18T14:56:05.561Z,1.20
2022-09-18T14:58:37.589Z,1.40
2022-09-18T15:01:08.151Z,1.00
2022-09-18T15:03:40.176Z,1.13
2022-09-18T15:06:14.207Z,0.93
2022-09-18T15:08:45.529Z,1.03
2022-09-18T15:11:16.077Z,1.13
2022-09-18T15:13:44.993Z,1.13
2022-09-18T15:16:19.570Z,1.53
2022-09-18T15:18:47.262Z,1.07
2022-09-18T15:21:29.825Z,1.10
2022-09-18T15:24:02.150Z,1.10
2022-09-18T15:26:32.647Z,0.80
2022-09-18T15:29:02.203Z,1.20
2022-09-18T15:31:33.822Z,0.70
2022-09-18T15:34:07.426Z,0.83
2022-09-18T15:36:39.870Z,1.20
2022-09-18T15:39:09.606Z,0.83
2022-09-18T15:41:42.951Z,0.90
2022-09-18T15:44:46.591Z,1.10
2022-09-18T15:47:34.789Z,0.83
2022-09-18T15:50:22.065Z,0.90
2022-09-18T15:53:08.802Z,0.97
2022-09-18T15:55:54.210Z,0.90
2022-09-18T15:58:42.287Z,0.90
2022-09-18T16:01:17.847Z,0.90
2022-09-18T16:03:45.952Z,0.77
2022-09-18T16:06:25.515Z,0.90
2022-09-18T16:08:56.950Z,0.90
2022-09-18T16:11:44.524Z,0.80
2022-09-18T16:14:41.147Z,1.10
2022-09-18T16:17:38.081Z,1.40
2022-09-18T16:20:30.542Z,1.33
2022-09-18T16:23:05.754Z,1.00
2022-09-18T16:25:37.857Z,0.90
2022-09-18T16:28:20.711Z,1.13
2022-09-18T16:30:48.484Z,1.50
2022-09-18T16:33:19.546Z,0.80
2022-09-18T16:35:48.487Z,0.93
2022-09-18T16:38:16.102Z,1.20
2022-09-18T16:40:47.067Z,1.33
2022-09-18T16:43:14.699Z,1.70
2022-09-18T16:45:42.291Z,1.00
2022-09-18T16:48:10.360Z,1.20
2022-09-18T16:50:38.861Z,1.10
2022-09-18T16:53:08.254Z,1.40
2022-09-18T16:55:39.627Z,1.20
2022-09-18T16:58:09.904Z,1.30
2022-09-18T17:00:38.548Z,1.37
2022-09-18T17:03:07.401Z,1.20
2022-09-18T17:05:35.593Z,1.10
2022-09-18T17:08:04.533Z,1.00
2022-09-18T17:10:32.540Z,1.50
2022-09-18T17:13:00.308Z,1.67
2022-09-18T17:15:29.441Z,1.27
2022-09-18T17:17:57.397Z,1.60
2022-09-18T17:20:24.952Z,1.43
2022-09-18T17:22:52.558Z,1.83
2022-09-18T17:25:20.628Z,1.50
2022-09-18T17:27:50.816Z,1.50
2022-09-18T17:30:18.670Z,1.50
2022-09-18T17:32:49.148Z,1.30
2022-09-18T17:35:17.559Z,0.93
2022-09-18T17:37:45.177Z,1.27
2022-09-18T17:40:12.860Z,1.50
2022-09-18T17:42:40.745Z,1.00
2022-09-18T17:45:09.334Z,1.10
2022-09-18T17:47:37.028Z,1.27
2022-09-18T17:50:07.421Z,1.30
2022-09-18T17:52:35.944Z,1.30
2022-09-18T17:55:03.896Z,2.13
2022-09-18T17:57:32.060Z,1.43
2022-09-18T17:59:59.644Z,1.07
2022-09-18T18:02:27.445Z,0.77
2022-09-18T18:04:55.275Z,1.03
2022-09-18T18:07:24.369Z,1.20
2022-09-18T18:09:51.999Z,1.10
2022-09-18T18:12:19.591Z,1.10
2022-09-18T18:14:47.172Z,1.13
2022-09-18T18:17:14.885Z,1.10
2022-09-18T18:19:42.648Z,1.30
2022-09-18T18:22:10.262Z,1.20
2022-09-18T18:24:39.509Z,1.00
2022-09-18T18:27:07.394Z,1.10
2022-09-18T18:29:37.826Z,1.00
2022-09-18T18:32:05.580Z,1.00
2022-09-18T18:34:33.177Z,1.03
2022-09-18T18:37:02.859Z,1.00
2022-09-18T18:39:30.529Z,1.00
2022-09-18T18:41:59.548Z,1.00
2022-09-18T18:44:27.265Z,1.43
2022-09-18T18:46:55.236Z,0.87
2022-09-18T18:49:23.554Z,1.10
2022-09-18T18:51:51.754Z,0.97
2022-09-18T18:54:21.355Z,1.07
2022-09-18T18:56:49.990Z,1.00
2022-09-18T18:59:22.149Z,0.80
2022-09-18T19:01:50.579Z,0.73
2022-09-18T19:04:19.830Z,0.83
2022-09-18T19:06:48.889Z,1.17
2022-09-18T19:09:20.518Z,1.10
2022-09-18T19:11:49.424Z,1.10
2022-09-18T19:14:21.136Z,0.97
2022-09-18T19:16:49.899Z,1.10
2022-09-18T19:19:19.706Z,1.07
2022-09-18T19:21:47.841Z,1.07
2022-09-18T19:24:16.503Z,0.90
2022-09-18T19:26:44.306Z,1.10
2022-09-18T19:29:14.870Z,0.80
2022-09-18T19:31:45.919Z,1.43
2022-09-18T19:34:15.448Z,0.90
2022-09-18T19:36:48.940Z,1.10
2022-09-18T19:39:18.379Z,1.27
2022-09-18T19:41:53.258Z,1.60
2022-09-18T19:44:29.929Z,1.00
2022-09-18T19:47:02.197Z,0.87
2022-09-18T19:49:32.762Z,1.20
2022-09-18T19:52:00.461Z,1.27
2022-09-18T19:54:28.055Z,0.90
2022-09-18T19:56:55.819Z,1.60
2022-09-18T19:59:23.726Z,1.80
2022-09-18T20:01:51.413Z,1.60
2022-09-18T20:04:20.422Z,1.50
2022-09-18T20:06:48.004Z,1.40
2022-09-18T20:09:15.787Z,1.40
2022-09-18T20:11:47.609Z,1.60
2022-09-18T20:14:16.210Z,1.03
2022-09-18T20:16:43.799Z,1.23
2022-09-18T20:19:11.374Z,1.40
2022-09-18T20:21:40.434Z,1.57
2022-09-18T20:24:08.091Z,1.30
2022-09-18T20:26:35.630Z,1.20
2022-09-18T20:29:03.346Z,1.37
2022-09-18T20:31:31.116Z,2.83
2022-09-18T20:34:00.412Z,1.30
2022-09-18T20:36:29.371Z,1.00
2022-09-18T20:39:03.384Z,1.17
2022-09-18T20:41:31.163Z,0.80
2022-09-18T20:44:04.989Z,1.30
2022-09-18T20:46:37.097Z,0.70
2022-09-18T20:49:07.771Z,0.70
2022-09-18T20:51:36.213Z,0.70
2022-09-18T20:54:08.189Z,0.80
2022-09-18T20:56:41.966Z,0.50
2022-09-18T20:59:10.715Z,0.20
2022-09-18T21:01:40.231Z,0.50
2022-09-18T21:04:09.054Z,0.23
2022-09-18T21:06:37.312Z,0.40
2022-09-18T21:09:08.303Z,0.40
2022-09-18T21:11:37.768Z,0.50
2022-09-18T21:14:06.906Z,0.43
2022-09-18T21:16:36.543Z,0.57
2022-09-18T21:19:04.997Z,0.50
2022-09-18T21:21:34.827Z,0.37
2022-09-18T21:24:03.652Z,0.40
2022-09-18T21:26:35.548Z,0.50
2022-09-18T21:29:05.628Z,0.33
2022-09-18T21:31:36.770Z,0.30
2022-09-18T21:34:04.807Z,0.40
2022-09-18T21:36:34.731Z,0.50
2022-09-18T21:39:03.607Z,0.50
2022-09-18T21:41:39.304Z,0.40
2022-09-18T21:44:08.920Z,0.40
2022-09-18T21:46:38.432Z,0.70
2022-09-18T21:49:07.496Z,0.27
2022-09-18T21:51:36.660Z,0.30
2022-09-18T21:54:05.406Z,0.60
2022-09-18T21:56:35.279Z,0.60
2022-09-18T21:59:02.927Z,0.40
2022-09-18T22:01:32.175Z,0.40
2022-09-18T22:04:02.180Z,0.57
2022-09-18T22:06:31.743Z,0.40
2022-09-18T22:09:01.097Z,0.30
2022-09-18T22:11:31.234Z,0.40
2022-09-18T22:14:00.922Z,0.40
2022-09-18T22:16:29.466Z,0.40
2022-09-18T22:18:57.873Z,0.40
2022-09-18T22:21:27.571Z,0.40
2022-09-18T22:23:56.707Z,0.27
2022-09-18T22:26:26.684Z,0.30
2022-09-18T22:28:56.701Z,0.20
2022-09-18T22:31:26.357Z,0.20
2022-09-18T22:33:55.139Z,0.30
2022-09-18T22:36:23.267Z,0.50
2022-09-18T22:38:50.936Z,0.40
2022-09-18T22:41:18.901Z,0.30
2022-09-18T22:43:46.675Z,0.60
2022-09-18T22:46:16.300Z,0.40
2022-09-18T22:48:45.318Z,0.23
2022-09-18T22:51:14.886Z,0.27
2022-09-18T22:53:48.055Z,0.30
2022-09-18T22:56:16.602Z,0.30
2022-09-18T22:58:44.405Z,0.20
2022-09-18T23:01:15.693Z,0.57
2022-09-18T23:03:43.412Z,0.20
2022-09-18T23:06:13.208Z,0.20
2022-09-18T23:08:41.027Z,0.30
2022-09-18T23:11:11.108Z,0.20
2022-09-18T23:13:40.086Z,0.10
2022-09-18T23:16:09.971Z,0.20
2022-09-18T23:18:38.172Z,0.20
2022-09-18T23:21:07.543Z,0.17
2022-09-18T23:23:38.343Z,0.30
2022-09-18T23:26:08.427Z,0.20
2022-09-18T23:28:37.270Z,0.13
2022-09-18T23:31:06.954Z,0.20
2022-09-18T23:33:35.054Z,0.20
2022-09-18T23:36:07.425Z,0.10
2022-09-18T23:38:36.865Z,0.10
2022-09-18T23:41:06.370Z,0.10
2022-09-18T23:43:34.397Z,0.10
2022-09-18T23:46:02.031Z,0.20
2022-09-18T23:48:29.860Z,0.10
2022-09-18T23:50:59.993Z,0.20
2022-09-18T23:53:27.940Z,0.10
2022-09-18T23:56:04.021Z,0.10
2022-09-18T23:58:31.858Z,0.20
